sensor_id;sensor_type;location;lat;lon;timestamp;temperature;humidity
74178;DHT22;62540;48.456;-4.456;2024-02-23T00:00:47;8.62;74.01
74178;DHT22;62540;48.456;-4.456;2024-02-23T00:03:12;8.65;73.99
74178;DHT22;62540;48.456;-4.456;2024-02-23T00:05:38;8.71;73.91
74178;DHT22;62540;48.456;-4.456;2024-02-23T00:08:03;8.69;73.90
74178;DHT22;62540;48.456;-4.456;2024-02-23T00:10:29;8.65;74.23
74178;DHT22;62540;48.456;-4.456;2024-02-23T00:12:54;8.68;74.28
74178;DHT22;62540;48.456;-4.456;2024-02-23T00:15:19;8.69;74.45
74178;DHT22;62540;48.456;-4.456;2024-02-23T00:17:45;8.71;74.53
74178;DHT22;62540;48.456;-4.456;2024-02-23T00:20:10;8.67;74.53
74178;DHT22;62540;48.456;-4.456;2024-02-23T00:22:37;8.72;74.26
74178;DHT22;62540;48.456;-4.456;2024-02-23T00:25:02;8.75;73.63
74178;DHT22;62540;48.456;-4.456;2024-02-23T00:27:28;8.78;73.28
74178;DHT22;62540;48.456;-4.456;2024-02-23T00:29:53;8.82;73.43
74178;DHT22;62540;48.456;-4.456;2024-02-23T00:32:18;8.83;73.04
74178;DHT22;62540;48.456;-4.456;2024-02-23T00:34:44;8.86;72.86
74178;DHT22;62540;48.456;-4.456;2024-02-23T00:37:12;8.88;72.37
74178;DHT22;62540;48.456;-4.456;2024-02-23T00:39:38;8.92;72.47
74178;DHT22;62540;48.456;-4.456;2024-02-23T00:42:03;8.93;72.38
74178;DHT22;62540;48.456;-4.456;2024-02-23T00:44:29;8.99;72.27
74178;DHT22;62540;48.456;-4.456;2024-02-23T00:46:54;8.99;72.48
74178;DHT22;62540;48.456;-4.456;2024-02-23T00:49:19;9.02;72.63
74178;DHT22;62540;48.456;-4.456;2024-02-23T00:51:45;9.05;72.65
74178;DHT22;62540;48.456;-4.456;2024-02-23T00:54:10;9.06;72.60
74178;DHT22;62540;48.456;-4.456;2024-02-23T00:56:36;9.13;72.73
74178;DHT22;62540;48.456;-4.456;2024-02-23T00:59:01;9.13;72.87
74178;DHT22;62540;48.456;-4.456;2024-02-23T01:01:26;9.16;72.95
74178;DHT22;62540;48.456;-4.456;2024-02-23T01:03:53;9.16;72.93
74178;DHT22;62540;48.456;-4.456;2024-02-23T01:06:20;9.06;73.22
74178;DHT22;62540;48.456;-4.456;2024-02-23T01:08:46;8.89;73.54
74178;DHT22;62540;48.456;-4.456;2024-02-23T01:11:11;8.75;73.34
74178;DHT22;62540;48.456;-4.456;2024-02-23T01:13:36;8.61;73.03
74178;DHT22;62540;48.456;-4.456;2024-02-23T01:16:02;8.33;72.30
74178;DHT22;62540;48.456;-4.456;2024-02-23T01:18:27;8.27;72.34
74178;DHT22;62540;48.456;-4.456;2024-02-23T01:20:53;8.20;72.36
74178;DHT22;62540;48.456;-4.456;2024-02-23T01:23:18;8.14;72.19
74178;DHT22;62540;48.456;-4.456;2024-02-23T01:25:43;8.07;72.03
74178;DHT22;62540;48.456;-4.456;2024-02-23T01:28:09;7.96;71.88
74178;DHT22;62540;48.456;-4.456;2024-02-23T01:30:34;7.75;73.33
74178;DHT22;62540;48.456;-4.456;2024-02-23T01:32:59;7.81;74.01
74178;DHT22;62540;48.456;-4.456;2024-02-23T01:35:25;7.79;73.41
74178;DHT22;62540;48.456;-4.456;2024-02-23T01:37:51;7.79;73.62
74178;DHT22;62540;48.456;-4.456;2024-02-23T01:40:16;7.81;73.78
74178;DHT22;62540;48.456;-4.456;2024-02-23T01:42:42;7.83;73.84
74178;DHT22;62540;48.456;-4.456;2024-02-23T01:45:07;7.85;73.79
74178;DHT22;62540;48.456;-4.456;2024-02-23T01:47:33;7.90;73.81
74178;DHT22;62540;48.456;-4.456;2024-02-23T01:49:59;7.92;73.87
74178;DHT22;62540;48.456;-4.456;2024-02-23T01:52:24;7.89;74.24
74178;DHT22;62540;48.456;-4.456;2024-02-23T01:54:51;7.90;74.53
74178;DHT22;62540;48.456;-4.456;2024-02-23T01:57:17;7.92;74.65
74178;DHT22;62540;48.456;-4.456;2024-02-23T01:59:43;7.99;74.40
74178;DHT22;62540;48.456;-4.456;2024-02-23T02:02:08;7.99;73.60
74178;DHT22;62540;48.456;-4.456;2024-02-23T02:04:34;8.00;73.49
74178;DHT22;62540;48.456;-4.456;2024-02-23T02:07:00;8.04;73.16
74178;DHT22;62540;48.456;-4.456;2024-02-23T02:09:26;8.09;72.89
74178;DHT22;62540;48.456;-4.456;2024-02-23T02:11:51;8.14;72.99
74178;DHT22;62540;48.456;-4.456;2024-02-23T02:14:17;8.17;72.70
74178;DHT22;62540;48.456;-4.456;2024-02-23T02:16:43;8.26;72.95
74178;DHT22;62540;48.456;-4.456;2024-02-23T02:19:10;8.26;72.74
74178;DHT22;62540;48.456;-4.456;2024-02-23T02:21:36;8.17;73.00
74178;DHT22;62540;48.456;-4.456;2024-02-23T02:24:02;8.21;73.34
74178;DHT22;62540;48.456;-4.456;2024-02-23T02:26:28;8.29;73.39
74178;DHT22;62540;48.456;-4.456;2024-02-23T02:28:53;8.34;73.35
74178;DHT22;62540;48.456;-4.456;2024-02-23T02:31:19;8.33;73.33
74178;DHT22;62540;48.456;-4.456;2024-02-23T02:33:44;8.36;73.31
74178;DHT22;62540;48.456;-4.456;2024-02-23T02:36:09;8.37;73.30
74178;DHT22;62540;48.456;-4.456;2024-02-23T02:38:36;8.38;73.00
74178;DHT22;62540;48.456;-4.456;2024-02-23T02:41:02;8.36;72.96
74178;DHT22;62540;48.456;-4.456;2024-02-23T02:43:27;8.33;73.12
74178;DHT22;62540;48.456;-4.456;2024-02-23T02:45:53;8.34;73.21
74178;DHT22;62540;48.456;-4.456;2024-02-23T02:48:18;8.33;73.18
74178;DHT22;62540;48.456;-4.456;2024-02-23T02:50:44;8.33;73.24
74178;DHT22;62540;48.456;-4.456;2024-02-23T02:53:10;8.34;73.35
74178;DHT22;62540;48.456;-4.456;2024-02-23T02:55:42;8.37;73.34
74178;DHT22;62540;48.456;-4.456;2024-02-23T02:58:07;8.44;73.33
74178;DHT22;62540;48.456;-4.456;2024-02-23T03:00:33;8.50;73.33
74178;DHT22;62540;48.456;-4.456;2024-02-23T03:02:58;8.48;73.30
74178;DHT22;62540;48.456;-4.456;2024-02-23T03:05:24;8.55;73.39
74178;DHT22;62540;48.456;-4.456;2024-02-23T03:07:49;8.60;73.35
74178;DHT22;62540;48.456;-4.456;2024-02-23T03:10:15;8.55;73.36
74178;DHT22;62540;48.456;-4.456;2024-02-23T03:12:40;8.61;73.38
74178;DHT22;62540;48.456;-4.456;2024-02-23T03:15:06;8.65;73.35
74178;DHT22;62540;48.456;-4.456;2024-02-23T03:17:32;8.67;73.36
74178;DHT22;62540;48.456;-4.456;2024-02-23T03:19:58;8.60;73.48
74178;DHT22;62540;48.456;-4.456;2024-02-23T03:22:23;8.58;73.64
74178;DHT22;62540;48.456;-4.456;2024-02-23T03:24:49;8.58;73.73
74178;DHT22;62540;48.456;-4.456;2024-02-23T03:27:14;8.61;73.73
74178;DHT22;62540;48.456;-4.456;2024-02-23T03:29:39;8.60;73.71
74178;DHT22;62540;48.456;-4.456;2024-02-23T03:32:05;8.60;73.78
74178;DHT22;62540;48.456;-4.456;2024-02-23T03:34:31;8.65;73.91
74178;DHT22;62540;48.456;-4.456;2024-02-23T03:36:56;8.68;74.07
74178;DHT22;62540;48.456;-4.456;2024-02-23T03:39:23;8.72;74.06
74178;DHT22;62540;48.456;-4.456;2024-02-23T03:41:48;8.72;74.20
74178;DHT22;62540;48.456;-4.456;2024-02-23T03:44:14;8.75;74.26
74178;DHT22;62540;48.456;-4.456;2024-02-23T03:46:39;8.75;74.28
74178;DHT22;62540;48.456;-4.456;2024-02-23T03:49:05;8.73;74.16
74178;DHT22;62540;48.456;-4.456;2024-02-23T03:51:30;8.76;74.15
74178;DHT22;62540;48.456;-4.456;2024-02-23T03:53:58;8.75;74.14
74178;DHT22;62540;48.456;-4.456;2024-02-23T03:56:23;8.75;74.00
74178;DHT22;62540;48.456;-4.456;2024-02-23T03:58:48;8.75;73.77
74178;DHT22;62540;48.456;-4.456;2024-02-23T04:01:15;8.75;73.85
74178;DHT22;62540;48.456;-4.456;2024-02-23T04:03:40;8.78;73.69
74178;DHT22;62540;48.456;-4.456;2024-02-23T04:06:06;8.76;73.79
74178;DHT22;62540;48.456;-4.456;2024-02-23T04:08:32;8.79;73.81
74178;DHT22;62540;48.456;-4.456;2024-02-23T04:10:58;8.83;73.75
74178;DHT22;62540;48.456;-4.456;2024-02-23T04:13:23;8.85;73.69
74178;DHT22;62540;48.456;-4.456;2024-02-23T04:15:49;8.75;73.90
74178;DHT22;62540;48.456;-4.456;2024-02-23T04:18:14;8.69;74.00
74178;DHT22;62540;48.456;-4.456;2024-02-23T04:20:40;8.72;73.98
74178;DHT22;62540;48.456;-4.456;2024-02-23T04:23:05;8.72;73.88
74178;DHT22;62540;48.456;-4.456;2024-02-23T04:25:30;8.71;73.54
74178;DHT22;62540;48.456;-4.456;2024-02-23T04:27:56;8.68;73.30
74178;DHT22;62540;48.456;-4.456;2024-02-23T04:30:21;8.67;73.38
74178;DHT22;62540;48.456;-4.456;2024-02-23T04:32:46;8.72;73.42
74178;DHT22;62540;48.456;-4.456;2024-02-23T04:35:12;8.71;73.05
74178;DHT22;62540;48.456;-4.456;2024-02-23T04:37:38;8.68;72.71
74178;DHT22;62540;48.456;-4.456;2024-02-23T04:40:04;8.61;72.67
74178;DHT22;62540;48.456;-4.456;2024-02-23T04:42:30;8.61;72.67
74178;DHT22;62540;48.456;-4.456;2024-02-23T04:44:56;8.60;72.70
74178;DHT22;62540;48.456;-4.456;2024-02-23T04:47:21;8.54;72.65
74178;DHT22;62540;48.456;-4.456;2024-02-23T04:49:47;8.54;72.85
74178;DHT22;62540;48.456;-4.456;2024-02-23T04:52:12;8.55;73.15
74178;DHT22;62540;48.456;-4.456;2024-02-23T04:54:38;8.57;73.14
74178;DHT22;62540;48.456;-4.456;2024-02-23T04:57:03;8.62;73.12
74178;DHT22;62540;48.456;-4.456;2024-02-23T04:59:29;8.60;73.30
74178;DHT22;62540;48.456;-4.456;2024-02-23T05:01:56;8.60;73.46
74178;DHT22;62540;48.456;-4.456;2024-02-23T05:04:22;8.57;73.62
74178;DHT22;62540;48.456;-4.456;2024-02-23T05:06:47;8.60;73.56
74178;DHT22;62540;48.456;-4.456;2024-02-23T05:09:12;8.61;73.41
74178;DHT22;62540;48.456;-4.456;2024-02-23T05:11:38;8.60;73.21
74178;DHT22;62540;48.456;-4.456;2024-02-23T05:14:04;8.62;73.29
74178;DHT22;62540;48.456;-4.456;2024-02-23T05:16:29;8.64;72.96
74178;DHT22;62540;48.456;-4.456;2024-02-23T05:18:54;8.65;73.12
74178;DHT22;62540;48.456;-4.456;2024-02-23T05:21:20;8.69;73.25
74178;DHT22;62540;48.456;-4.456;2024-02-23T05:23:45;8.72;73.41
74178;DHT22;62540;48.456;-4.456;2024-02-23T05:26:11;8.72;73.28
74178;DHT22;62540;48.456;-4.456;2024-02-23T05:28:37;8.71;73.30
74178;DHT22;62540;48.456;-4.456;2024-02-23T05:31:03;8.75;73.36
74178;DHT22;62540;48.456;-4.456;2024-02-23T05:33:29;8.75;73.45
74178;DHT22;62540;48.456;-4.456;2024-02-23T05:35:55;8.76;73.52
74178;DHT22;62540;48.456;-4.456;2024-02-23T05:38:20;8.79;73.54
74178;DHT22;62540;48.456;-4.456;2024-02-23T05:40:46;8.75;73.69
74178;DHT22;62540;48.456;-4.456;2024-02-23T05:43:12;8.76;73.70
74178;DHT22;62540;48.456;-4.456;2024-02-23T05:45:37;8.75;73.58
74178;DHT22;62540;48.456;-4.456;2024-02-23T05:48:03;8.75;73.48
74178;DHT22;62540;48.456;-4.456;2024-02-23T05:50:29;8.71;73.35
74178;DHT22;62540;48.456;-4.456;2024-02-23T05:52:54;8.72;72.97
74178;DHT22;62540;48.456;-4.456;2024-02-23T05:55:19;8.65;72.96
74178;DHT22;62540;48.456;-4.456;2024-02-23T05:57:45;8.61;72.91
74178;DHT22;62540;48.456;-4.456;2024-02-23T06:00:11;8.57;72.89
74178;DHT22;62540;48.456;-4.456;2024-02-23T06:02:37;8.58;72.91
74178;DHT22;62540;48.456;-4.456;2024-02-23T06:05:03;8.62;73.10
74178;DHT22;62540;48.456;-4.456;2024-02-23T06:07:29;8.60;72.30
74178;DHT22;62540;48.456;-4.456;2024-02-23T06:09:58;8.54;72.37
74178;DHT22;62540;48.456;-4.456;2024-02-23T06:12:24;8.52;72.15
74178;DHT22;62540;48.456;-4.456;2024-02-23T06:14:50;8.45;72.05
74178;DHT22;62540;48.456;-4.456;2024-02-23T06:17:16;8.31;72.55
74178;DHT22;62540;48.456;-4.456;2024-02-23T06:19:41;8.21;73.50
74178;DHT22;62540;48.456;-4.456;2024-02-23T06:22:07;8.17;73.50
74178;DHT22;62540;48.456;-4.456;2024-02-23T06:24:33;8.13;73.39
74178;DHT22;62540;48.456;-4.456;2024-02-23T06:26:58;8.10;73.15
74178;DHT22;62540;48.456;-4.456;2024-02-23T06:29:24;8.04;72.97
74178;DHT22;62540;48.456;-4.456;2024-02-23T06:31:50;7.97;72.48
74178;DHT22;62540;48.456;-4.456;2024-02-23T06:34:15;7.90;72.37
74178;DHT22;62540;48.456;-4.456;2024-02-23T06:36:41;7.89;72.47
74178;DHT22;62540;48.456;-4.456;2024-02-23T06:39:07;7.92;72.71
74178;DHT22;62540;48.456;-4.456;2024-02-23T06:41:33;7.90;72.85
74178;DHT22;62540;48.456;-4.456;2024-02-23T06:43:59;7.90;73.23
74178;DHT22;62540;48.456;-4.456;2024-02-23T06:46:24;7.90;73.46
74178;DHT22;62540;48.456;-4.456;2024-02-23T06:48:50;7.92;73.81
74178;DHT22;62540;48.456;-4.456;2024-02-23T06:51:15;7.93;73.99
74178;DHT22;62540;48.456;-4.456;2024-02-23T06:53:41;7.94;74.02
74178;DHT22;62540;48.456;-4.456;2024-02-23T06:56:07;8.02;74.01
74178;DHT22;62540;48.456;-4.456;2024-02-23T06:58:32;8.00;74.00
74178;DHT22;62540;48.456;-4.456;2024-02-23T07:00:57;8.00;73.91
74178;DHT22;62540;48.456;-4.456;2024-02-23T07:03:23;7.97;73.79
74178;DHT22;62540;48.456;-4.456;2024-02-23T07:05:48;8.00;73.89
74178;DHT22;62540;48.456;-4.456;2024-02-23T07:08:15;8.00;73.83
74178;DHT22;62540;48.456;-4.456;2024-02-23T07:10:41;8.03;73.70
74178;DHT22;62540;48.456;-4.456;2024-02-23T07:13:06;8.04;73.53
74178;DHT22;62540;48.456;-4.456;2024-02-23T07:15:32;8.04;73.31
74178;DHT22;62540;48.456;-4.456;2024-02-23T07:17:58;8.10;73.39
74178;DHT22;62540;48.456;-4.456;2024-02-23T07:20:24;8.06;73.37
74178;DHT22;62540;48.456;-4.456;2024-02-23T07:22:49;8.07;73.31
74178;DHT22;62540;48.456;-4.456;2024-02-23T07:25:18;7.87;73.41
74178;DHT22;62540;48.456;-4.456;2024-02-23T07:27:46;7.61;73.85
74178;DHT22;62540;48.456;-4.456;2024-02-23T07:30:12;7.35;73.94
74178;DHT22;62540;48.456;-4.456;2024-02-23T07:32:37;7.36;74.32
74178;DHT22;62540;48.456;-4.456;2024-02-23T07:35:03;7.30;74.48
74178;DHT22;62540;48.456;-4.456;2024-02-23T07:37:29;7.30;74.85
74178;DHT22;62540;48.456;-4.456;2024-02-23T07:39:54;7.27;75.22
74178;DHT22;62540;48.456;-4.456;2024-02-23T07:42:20;7.20;75.83
74178;DHT22;62540;48.456;-4.456;2024-02-23T07:44:45;7.24;75.83
74178;DHT22;62540;48.456;-4.456;2024-02-23T07:47:11;7.31;75.63
74178;DHT22;62540;48.456;-4.456;2024-02-23T07:49:36;7.32;75.45
74178;DHT22;62540;48.456;-4.456;2024-02-23T07:52:02;7.35;75.35
74178;DHT22;62540;48.456;-4.456;2024-02-23T07:54:28;7.35;75.44
74178;DHT22;62540;48.456;-4.456;2024-02-23T07:56:53;7.41;75.45
74178;DHT22;62540;48.456;-4.456;2024-02-23T07:59:18;7.44;75.56
74178;DHT22;62540;48.456;-4.456;2024-02-23T08:01:44;7.44;75.72
74178;DHT22;62540;48.456;-4.456;2024-02-23T08:04:09;7.52;75.58
74178;DHT22;62540;48.456;-4.456;2024-02-23T08:06:35;7.56;75.63
74178;DHT22;62540;48.456;-4.456;2024-02-23T08:09:00;7.59;75.52
74178;DHT22;62540;48.456;-4.456;2024-02-23T08:11:25;7.65;75.46
74178;DHT22;62540;48.456;-4.456;2024-02-23T08:13:51;7.72;75.39
74178;DHT22;62540;48.456;-4.456;2024-02-23T08:16:16;7.79;75.34
74178;DHT22;62540;48.456;-4.456;2024-02-23T08:18:42;7.87;75.15
74178;DHT22;62540;48.456;-4.456;2024-02-23T08:21:12;7.96;74.97
74178;DHT22;62540;48.456;-4.456;2024-02-23T08:23:37;8.02;74.74
74178;DHT22;62540;48.456;-4.456;2024-02-23T08:26:03;8.07;74.55
74178;DHT22;62540;48.456;-4.456;2024-02-23T08:28:28;8.09;74.26
74178;DHT22;62540;48.456;-4.456;2024-02-23T08:30:54;8.10;74.26
74178;DHT22;62540;48.456;-4.456;2024-02-23T08:33:19;8.19;74.17
74178;DHT22;62540;48.456;-4.456;2024-02-23T08:35:45;8.23;74.05
74178;DHT22;62540;48.456;-4.456;2024-02-23T08:38:11;8.27;74.06
74178;DHT22;62540;48.456;-4.456;2024-02-23T08:40:36;8.33;74.07
74178;DHT22;62540;48.456;-4.456;2024-02-23T08:43:02;8.41;74.08
74178;DHT22;62540;48.456;-4.456;2024-02-23T08:45:28;8.45;74.02
74178;DHT22;62540;48.456;-4.456;2024-02-23T08:47:53;8.45;74.10
74178;DHT22;62540;48.456;-4.456;2024-02-23T08:50:19;8.48;74.37
74178;DHT22;62540;48.456;-4.456;2024-02-23T08:52:44;8.52;74.53
74178;DHT22;62540;48.456;-4.456;2024-02-23T08:55:09;8.60;74.55
74178;DHT22;62540;48.456;-4.456;2024-02-23T08:57:36;8.69;74.51
74178;DHT22;62540;48.456;-4.456;2024-02-23T09:00:02;8.83;74.48
74178;DHT22;62540;48.456;-4.456;2024-02-23T09:02:29;8.92;74.46
74178;DHT22;62540;48.456;-4.456;2024-02-23T09:04:55;9.06;74.65
74178;DHT22;62540;48.456;-4.456;2024-02-23T09:07:20;9.20;74.56
74178;DHT22;62540;48.456;-4.456;2024-02-23T09:09:46;9.34;74.43
74178;DHT22;62540;48.456;-4.456;2024-02-23T09:12:14;9.44;74.33
74178;DHT22;62540;48.456;-4.456;2024-02-23T09:14:41;9.51;74.02
74178;DHT22;62540;48.456;-4.456;2024-02-23T09:17:07;9.60;73.98
74178;DHT22;62540;48.456;-4.456;2024-02-23T09:19:33;9.62;73.54
74178;DHT22;62540;48.456;-4.456;2024-02-23T09:21:59;9.70;73.57
74178;DHT22;62540;48.456;-4.456;2024-02-23T09:24:26;9.79;73.25
74178;DHT22;62540;48.456;-4.456;2024-02-23T09:26:51;9.67;70.51
74178;DHT22;62540;48.456;-4.456;2024-02-23T09:29:16;9.65;71.78
74178;DHT22;62540;48.456;-4.456;2024-02-23T09:31:42;9.71;72.49
74178;DHT22;62540;48.456;-4.456;2024-02-23T09:34:07;9.70;72.64
74178;DHT22;62540;48.456;-4.456;2024-02-23T09:36:32;9.67;72.54
74178;DHT22;62540;48.456;-4.456;2024-02-23T09:38:58;9.65;72.73
74178;DHT22;62540;48.456;-4.456;2024-02-23T09:41:23;9.74;72.93
74178;DHT22;62540;48.456;-4.456;2024-02-23T09:43:49;9.95;73.51
74178;DHT22;62540;48.456;-4.456;2024-02-23T09:46:16;10.19;73.56
74178;DHT22;62540;48.456;-4.456;2024-02-23T09:48:45;10.32;73.17
74178;DHT22;62540;48.456;-4.456;2024-02-23T09:51:15;10.36;72.76
74178;DHT22;62540;48.456;-4.456;2024-02-23T09:53:41;10.35;72.38
74178;DHT22;62540;48.456;-4.456;2024-02-23T09:56:08;10.29;72.42
74178;DHT22;62540;48.456;-4.456;2024-02-23T09:58:36;10.26;71.82
74178;DHT22;62540;48.456;-4.456;2024-02-23T10:01:03;10.18;71.50
74178;DHT22;62540;48.456;-4.456;2024-02-23T10:03:29;10.19;70.59
74178;DHT22;62540;48.456;-4.456;2024-02-23T10:05:57;10.16;70.89
74178;DHT22;62540;48.456;-4.456;2024-02-23T10:08:23;10.20;70.40
74178;DHT22;62540;48.456;-4.456;2024-02-23T10:10:49;10.26;70.57
74178;DHT22;62540;48.456;-4.456;2024-02-23T10:13:19;10.28;70.59
74178;DHT22;62540;48.456;-4.456;2024-02-23T10:15:46;10.30;70.02
74178;DHT22;62540;48.456;-4.456;2024-02-23T10:18:12;10.28;70.09
74178;DHT22;62540;48.456;-4.456;2024-02-23T10:20:38;10.29;69.45
74178;DHT22;62540;48.456;-4.456;2024-02-23T10:23:04;10.29;69.47
74178;DHT22;62540;48.456;-4.456;2024-02-23T10:25:30;10.28;69.42
74178;DHT22;62540;48.456;-4.456;2024-02-23T10:27:55;10.43;70.05
74178;DHT22;62540;48.456;-4.456;2024-02-23T10:30:21;10.73;70.70
74178;DHT22;62540;48.456;-4.456;2024-02-23T10:32:47;10.85;69.30
74178;DHT22;62540;48.456;-4.456;2024-02-23T10:35:15;10.95;69.32
74178;DHT22;62540;48.456;-4.456;2024-02-23T10:37:48;11.04;68.36
74178;DHT22;62540;48.456;-4.456;2024-02-23T10:40:16;11.11;69.28
74178;DHT22;62540;48.456;-4.456;2024-02-23T10:42:44;11.18;69.21
74178;DHT22;62540;48.456;-4.456;2024-02-23T10:45:17;11.31;68.52
74178;DHT22;62540;48.456;-4.456;2024-02-23T10:47:43;11.36;67.49
74178;DHT22;62540;48.456;-4.456;2024-02-23T10:50:09;11.40;67.79
74178;DHT22;62540;48.456;-4.456;2024-02-23T10:52:35;11.45;69.03
74178;DHT22;62540;48.456;-4.456;2024-02-23T10:55:01;11.47;67.94
74178;DHT22;62540;48.456;-4.456;2024-02-23T10:57:34;11.65;69.29
74178;DHT22;62540;48.456;-4.456;2024-02-23T11:00:00;11.93;68.81
74178;DHT22;62540;48.456;-4.456;2024-02-23T11:02:27;12.16;68.87
74178;DHT22;62540;48.456;-4.456;2024-02-23T11:04:56;12.21;66.70
74178;DHT22;62540;48.456;-4.456;2024-02-23T11:07:22;12.17;66.34
74178;DHT22;62540;48.456;-4.456;2024-02-23T11:09:59;12.11;66.11
74178;DHT22;62540;48.456;-4.456;2024-02-23T11:12:26;12.00;64.72
74178;DHT22;62540;48.456;-4.456;2024-02-23T11:14:58;11.91;64.65
74178;DHT22;62540;48.456;-4.456;2024-02-23T11:17:26;11.82;63.60
74178;DHT22;62540;48.456;-4.456;2024-02-23T11:19:54;11.73;64.96
74178;DHT22;62540;48.456;-4.456;2024-02-23T11:22:40;11.66;65.32
74178;DHT22;62540;48.456;-4.456;2024-02-23T11:25:09;11.29;62.23
74178;DHT22;62540;48.456;-4.456;2024-02-23T11:27:36;10.85;62.32
74178;DHT22;62540;48.456;-4.456;2024-02-23T11:30:07;10.56;64.19
74178;DHT22;62540;48.456;-4.456;2024-02-23T11:32:38;10.29;64.83
74178;DHT22;62540;48.456;-4.456;2024-02-23T11:35:06;10.15;65.99
74178;DHT22;62540;48.456;-4.456;2024-02-23T11:37:31;10.01;66.85
74178;DHT22;62540;48.456;-4.456;2024-02-23T11:39:59;9.88;67.10
74178;DHT22;62540;48.456;-4.456;2024-02-23T11:42:25;9.79;67.59
74178;DHT22;62540;48.456;-4.456;2024-02-23T11:44:52;9.73;68.29
74178;DHT22;62540;48.456;-4.456;2024-02-23T11:47:19;9.65;68.41
74178;DHT22;62540;48.456;-4.456;2024-02-23T11:49:44;9.46;68.20
74178;DHT22;62540;48.456;-4.456;2024-02-23T11:52:10;9.33;68.47
74178;DHT22;62540;48.456;-4.456;2024-02-23T11:54:35;9.08;69.00
74178;DHT22;62540;48.456;-4.456;2024-02-23T11:57:01;8.98;69.27
74178;DHT22;62540;48.456;-4.456;2024-02-23T11:59:27;8.83;69.34
74178;DHT22;62540;48.456;-4.456;2024-02-23T12:01:52;8.73;69.36
74178;DHT22;62540;48.456;-4.456;2024-02-23T12:04:17;8.67;69.53
74178;DHT22;62540;48.456;-4.456;2024-02-23T12:06:43;8.73;70.18
74178;DHT22;62540;48.456;-4.456;2024-02-23T12:09:09;8.85;70.16
74178;DHT22;62540;48.456;-4.456;2024-02-23T12:11:35;8.93;69.77
74178;DHT22;62540;48.456;-4.456;2024-02-23T12:14:01;8.98;68.98
74178;DHT22;62540;48.456;-4.456;2024-02-23T12:16:33;9.02;69.20
74178;DHT22;62540;48.456;-4.456;2024-02-23T12:19:01;9.18;68.99
74178;DHT22;62540;48.456;-4.456;2024-02-23T12:21:26;9.20;68.34
74178;DHT22;62540;48.456;-4.456;2024-02-23T12:23:52;9.27;68.28
74178;DHT22;62540;48.456;-4.456;2024-02-23T12:26:18;9.36;68.73
74178;DHT22;62540;48.456;-4.456;2024-02-23T12:28:44;9.50;68.63
74178;DHT22;62540;48.456;-4.456;2024-02-23T12:31:10;9.55;68.31
74178;DHT22;62540;48.456;-4.456;2024-02-23T12:33:37;9.57;67.73
74178;DHT22;62540;48.456;-4.456;2024-02-23T12:36:04;9.61;67.89
74178;DHT22;62540;48.456;-4.456;2024-02-23T12:38:30;9.73;68.20
74178;DHT22;62540;48.456;-4.456;2024-02-23T12:40:55;9.84;68.65
74178;DHT22;62540;48.456;-4.456;2024-02-23T12:43:21;9.89;68.04
74178;DHT22;62540;48.456;-4.456;2024-02-23T12:45:49;10.03;68.02
74178;DHT22;62540;48.456;-4.456;2024-02-23T12:48:16;10.06;66.92
74178;DHT22;62540;48.456;-4.456;2024-02-23T12:50:41;10.15;66.96
74178;DHT22;62540;48.456;-4.456;2024-02-23T12:53:08;10.39;68.20
74178;DHT22;62540;48.456;-4.456;2024-02-23T12:55:33;10.70;67.64
74178;DHT22;62540;48.456;-4.456;2024-02-23T12:58:01;11.11;66.29
74178;DHT22;62540;48.456;-4.456;2024-02-23T13:00:27;11.47;66.82
74178;DHT22;62540;48.456;-4.456;2024-02-23T13:02:52;11.61;65.11
74178;DHT22;62540;48.456;-4.456;2024-02-23T13:05:18;11.62;65.23
74178;DHT22;62540;48.456;-4.456;2024-02-23T13:07:43;11.49;65.28
74178;DHT22;62540;48.456;-4.456;2024-02-23T13:10:08;11.35;66.72
74178;DHT22;62540;48.456;-4.456;2024-02-23T13:12:34;11.32;66.00
74178;DHT22;62540;48.456;-4.456;2024-02-23T13:14:59;11.28;67.03
74178;DHT22;62540;48.456;-4.456;2024-02-23T13:17:24;11.22;65.09
74178;DHT22;62540;48.456;-4.456;2024-02-23T13:19:50;10.98;64.36
74178;DHT22;62540;48.456;-4.456;2024-02-23T13:22:16;10.83;64.58
74178;DHT22;62540;48.456;-4.456;2024-02-23T13:24:41;10.73;65.01
74178;DHT22;62540;48.456;-4.456;2024-02-23T13:27:06;10.61;64.81
74178;DHT22;62540;48.456;-4.456;2024-02-23T13:29:32;10.57;65.56
74178;DHT22;62540;48.456;-4.456;2024-02-23T13:31:57;10.56;65.92
74178;DHT22;62540;48.456;-4.456;2024-02-23T13:34:22;10.63;66.84
74178;DHT22;62540;48.456;-4.456;2024-02-23T13:36:48;10.67;66.44
74178;DHT22;62540;48.456;-4.456;2024-02-23T13:39:15;10.70;66.53
74178;DHT22;62540;48.456;-4.456;2024-02-23T13:41:40;10.70;65.73
74178;DHT22;62540;48.456;-4.456;2024-02-23T13:44:06;10.80;66.62
74178;DHT22;62540;48.456;-4.456;2024-02-23T13:46:31;10.85;66.22
74178;DHT22;62540;48.456;-4.456;2024-02-23T13:49:04;10.93;66.75
74178;DHT22;62540;48.456;-4.456;2024-02-23T13:51:34;10.97;66.08
74178;DHT22;62540;48.456;-4.456;2024-02-23T13:53:59;10.98;65.45
74178;DHT22;62540;48.456;-4.456;2024-02-23T13:56:25;10.78;64.94
74178;DHT22;62540;48.456;-4.456;2024-02-23T13:58:50;10.60;65.75
74178;DHT22;62540;48.456;-4.456;2024-02-23T14:01:16;10.39;66.25
74178;DHT22;62540;48.456;-4.456;2024-02-23T14:03:41;10.25;66.58
74178;DHT22;62540;48.456;-4.456;2024-02-23T14:06:07;10.06;64.95
74178;DHT22;62540;48.456;-4.456;2024-02-23T14:08:32;9.84;63.68
74178;DHT22;62540;48.456;-4.456;2024-02-23T14:11:00;9.57;63.88
74178;DHT22;62540;48.456;-4.456;2024-02-23T14:13:26;9.47;64.56
74178;DHT22;62540;48.456;-4.456;2024-02-23T14:15:51;9.61;65.64
74178;DHT22;62540;48.456;-4.456;2024-02-23T14:18:16;9.77;66.10
74178;DHT22;62540;48.456;-4.456;2024-02-23T14:20:42;9.89;65.83
74178;DHT22;62540;48.456;-4.456;2024-02-23T14:23:07;10.01;65.65
74178;DHT22;62540;48.456;-4.456;2024-02-23T14:25:33;10.08;65.33
74178;DHT22;62540;48.456;-4.456;2024-02-23T14:27:58;10.18;65.64
74178;DHT22;62540;48.456;-4.456;2024-02-23T14:30:23;10.22;64.38
74178;DHT22;62540;48.456;-4.456;2024-02-23T14:32:49;10.26;64.57
74178;DHT22;62540;48.456;-4.456;2024-02-23T14:35:14;10.18;62.91
74178;DHT22;62540;48.456;-4.456;2024-02-23T14:37:40;10.10;63.84
74178;DHT22;62540;48.456;-4.456;2024-02-23T14:40:06;10.16;64.59
74178;DHT22;62540;48.456;-4.456;2024-02-23T14:42:31;10.12;63.96
74178;DHT22;62540;48.456;-4.456;2024-02-23T14:44:57;10.13;64.50
74178;DHT22;62540;48.456;-4.456;2024-02-23T14:47:22;10.12;65.15
74178;DHT22;62540;48.456;-4.456;2024-02-23T14:49:47;10.15;64.43
74178;DHT22;62540;48.456;-4.456;2024-02-23T14:52:15;10.22;65.21
74178;DHT22;62540;48.456;-4.456;2024-02-23T14:54:41;10.19;65.07
74178;DHT22;62540;48.456;-4.456;2024-02-23T14:57:06;10.09;64.97
74178;DHT22;62540;48.456;-4.456;2024-02-23T14:59:33;10.09;65.55
74178;DHT22;62540;48.456;-4.456;2024-02-23T15:02:01;10.12;65.65
74178;DHT22;62540;48.456;-4.456;2024-02-23T15:04:27;10.20;65.96
74178;DHT22;62540;48.456;-4.456;2024-02-23T15:06:53;10.25;65.58
74178;DHT22;62540;48.456;-4.456;2024-02-23T15:09:18;10.32;65.77
74178;DHT22;62540;48.456;-4.456;2024-02-23T15:11:44;10.37;65.87
74178;DHT22;62540;48.456;-4.456;2024-02-23T15:14:10;10.47;65.80
74178;DHT22;62540;48.456;-4.456;2024-02-23T15:16:35;10.49;65.06
74178;DHT22;62540;48.456;-4.456;2024-02-23T15:19:01;10.46;64.64